CheckWX is a tool to help pilots better visualize weather data.  It is not intended as a substitute for an official pre-flight weather briefing.

01:06:24 UTC

KLGA TAF
Laguardia Airport
New York, New York, USA
KLGA 232346Z 2400/2506 11007KT P6SM SCT025 BKN120 FM240200 09007KT P6SM VCSH SCT025 OVC070 FM240500 08008KT 5SM -RA OVC015 TEMPO 2408/2409 OVC008 FM240900 08009KT 2SM RA BR OVC007 WS020/13045KT FM241500 10010KT 2SM RA BR OVC004 FM241700 14008KT 2SM -DZ BR OVC004 WS020/20050KT FM242000 22010KT 2SM -DZ BR OVC007 FM250000 26024G39KT P6SM SCT050

Feb-24@
00:00 UTC

Feb-24 @ 00:00 UTC

Feb-24@
02:00 UTC

Feb-24 @ 02:00 UTC

KLGA 232346Z 2400/2506 11007KT P6SM SCT025 BKN120
Wind
  • 110° at 7 KTS
Cloud Levels
  • Scattered at 2,500' AGL
  • Broken at 12,000' AGL

Feb-24@
02:00 UTC

Feb-24 @ 02:00 UTC

Feb-24@
05:00 UTC

Feb-24 @ 05:00 UTC

FM240200 09007KT P6SM VCSH SCT025 OVC070

From

From Standard forecast or significant change

Wind
  • 090° at 7 KTS
Cloud Levels
  • Scattered at 2,500' AGL
  • Overcast at 7,000' AGL

Feb-24@
05:00 UTC

Feb-24 @ 05:00 UTC

Feb-24@
09:00 UTC

Feb-24 @ 09:00 UTC

FM240500 08008KT 5SM -RA OVC015

From

From Standard forecast or significant change

Wind
  • 080° at 8 KTS
Conditions
Light Rain
Cloud Levels
  • Overcast at 1,500' AGL

Feb-24@
08:00 UTC

Feb-24 @ 08:00 UTC

Feb-24@
09:00 UTC

Feb-24 @ 09:00 UTC

TEMPO 2408/2409 OVC008

Temporary

Temporary Changes expected for less than half the time period

Cloud Levels
  • Overcast at 800' AGL

Feb-24@
09:00 UTC

Feb-24 @ 09:00 UTC

Feb-24@
15:00 UTC

Feb-24 @ 15:00 UTC

FM240900 08009KT 2SM RA BR OVC007 WS020/13045KT

From

From Standard forecast or significant change

Wind
  • 080° at 9 KTS
Conditions
Rain, Mist
Cloud Levels
  • Overcast at 700' AGL

Feb-24@
15:00 UTC

Feb-24 @ 15:00 UTC

Feb-24@
17:00 UTC

Feb-24 @ 17:00 UTC

FM241500 10010KT 2SM RA BR OVC004

From

From Standard forecast or significant change

Wind
  • 100° at 10 KTS
Conditions
Rain, Mist
Cloud Levels
  • Overcast at 400' AGL

Feb-24@
17:00 UTC

Feb-24 @ 17:00 UTC

Feb-24@
20:00 UTC

Feb-24 @ 20:00 UTC

FM241700 14008KT 2SM -DZ BR OVC004 WS020/20050KT

From

From Standard forecast or significant change

Wind
  • 140° at 8 KTS
Conditions
Light Drizzle, Mist
Cloud Levels
  • Overcast at 400' AGL

Feb-24@
20:00 UTC

Feb-24 @ 20:00 UTC

Feb-25@
00:00 UTC

Feb-25 @ 00:00 UTC

FM242000 22010KT 2SM -DZ BR OVC007

From

From Standard forecast or significant change

Wind
  • 220° at 10 KTS
Conditions
Light Drizzle, Mist
Cloud Levels
  • Overcast at 700' AGL

Feb-25@
00:00 UTC

Feb-25 @ 00:00 UTC

Feb-25@
06:00 UTC

Feb-25 @ 06:00 UTC

FM250000 26024G39KT P6SM SCT050

From

From Standard forecast or significant change

Wind
  • 260° at 24 KTS
  • {Gusting to 39 KTS
Cloud Levels
  • Scattered at 5,000' AGL